createdAt,value
2022-08-05T00:06:22.303Z,5.30
2022-08-05T00:16:15.575Z,4.70
2022-08-05T00:26:20.397Z,5.40
2022-08-05T00:37:09.598Z,5.30
2022-08-05T00:46:19.661Z,5.00
2022-08-05T00:56:22.868Z,5.50
2022-08-05T01:06:26.618Z,5.10
2022-08-05T01:16:26.076Z,5.10
2022-08-05T01:26:26.157Z,5.50
2022-08-05T01:36:28.024Z,5.20
2022-08-05T01:46:41.810Z,5.80
2022-08-05T01:58:08.779Z,5.40
2022-08-05T02:06:33.760Z,5.40
2022-08-05T02:16:27.795Z,5.80
2022-08-05T02:26:32.947Z,5.10
2022-08-05T02:36:32.566Z,5.60
2022-08-05T02:46:32.200Z,5.50
2022-08-05T02:56:31.976Z,5.80
2022-08-05T03:06:53.527Z,5.80
2022-08-05T03:16:36.612Z,6.30
2022-08-05T03:26:36.206Z,6.10
2022-08-05T03:36:35.853Z,6.30
2022-08-05T03:46:35.881Z,5.80
2022-08-05T03:56:41.241Z,5.70
2022-08-05T04:06:42.770Z,6.40
2022-08-05T04:16:40.294Z,5.90
2022-08-05T04:26:39.932Z,5.80
2022-08-05T04:36:46.398Z,5.50
2022-08-05T04:46:47.047Z,5.70
2022-08-05T04:56:44.329Z,6.20
2022-08-05T05:06:45.069Z,5.70
2022-08-05T05:16:43.610Z,6.20
2022-08-05T05:26:51.879Z,7.20
2022-08-05T05:36:48.515Z,6.50
2022-08-05T05:46:48.002Z,6.80
2022-08-05T05:56:47.650Z,7.30
2022-08-05T06:06:52.786Z,6.70
2022-08-05T06:16:52.425Z,7.60
2022-08-05T06:26:53.220Z,9.20
2022-08-05T06:36:53.738Z,10.00
2022-08-05T06:46:51.489Z,8.70
2022-08-05T06:57:14.142Z,9.50
2022-08-05T07:06:56.238Z,10.20
2022-08-05T07:17:57.963Z,9.60
2022-08-05T07:26:55.690Z,11.20
2022-08-05T07:37:00.781Z,12.80
2022-08-05T07:47:00.441Z,14.00
2022-08-05T07:57:14.939Z,14.00
2022-08-05T08:06:59.578Z,13.40
2022-08-05T08:16:59.511Z,11.70
2022-08-05T08:27:07.183Z,9.70
2022-08-05T08:37:05.392Z,7.30
2022-08-05T08:47:03.734Z,5.80
2022-08-05T08:57:03.390Z,6.30
2022-08-05T09:07:02.953Z,7.40
2022-08-05T09:17:09.636Z,9.30
2022-08-05T09:27:07.732Z,9.20
2022-08-05T09:37:07.366Z,7.90
2022-08-05T09:47:10.221Z,7.10
2022-08-05T09:57:20.725Z,6.60
2022-08-05T10:07:20.681Z,6.00
2022-08-05T10:17:14.068Z,6.50
2022-08-05T10:27:11.010Z,5.70
2022-08-05T10:37:10.635Z,5.40
2022-08-05T10:47:25.833Z,5.30
2022-08-05T10:57:15.609Z,5.30
2022-08-05T11:07:15.232Z,5.80
2022-08-05T11:17:58.449Z,5.80
2022-08-05T11:27:14.419Z,5.30
2022-08-05T11:38:27.000Z,6.50
2022-08-05T11:47:21.912Z,6.70
2022-08-05T11:57:24.659Z,6.30
2022-08-05T12:07:18.377Z,5.50
2022-08-05T12:18:03.477Z,6.10
2022-08-05T12:27:21.459Z,6.40
2022-08-05T12:37:23.020Z,7.70
2022-08-05T12:47:22.786Z,6.80
2022-08-05T12:57:23.209Z,5.80
2022-08-05T13:07:47.698Z,5.30
2022-08-05T13:17:25.134Z,5.80
2022-08-05T13:27:35.643Z,6.20
2022-08-05T13:37:27.150Z,5.90
2022-08-05T13:47:28.100Z,6.70
2022-08-05T13:57:25.971Z,6.20
2022-08-05T14:07:57.118Z,6.40
2022-08-05T14:17:30.683Z,9.10
2022-08-05T14:27:30.117Z,7.90
2022-08-05T14:37:42.267Z,7.50
2022-08-05T14:47:58.637Z,7.60
2022-08-05T14:57:54.128Z,6.70
2022-08-05T15:08:04.499Z,6.30
2022-08-05T15:17:45.330Z,7.30
2022-08-05T15:27:38.871Z,7.00
2022-08-05T15:38:08.951Z,4.70
2022-08-05T15:47:38.108Z,5.10
2022-08-05T15:57:37.718Z,4.70
2022-08-05T16:07:46.180Z,5.60
2022-08-05T16:17:42.460Z,4.50
2022-08-05T16:27:47.583Z,4.10
2022-08-05T16:38:02.229Z,4.70
2022-08-05T16:47:53.737Z,4.00
2022-08-05T16:57:53.124Z,3.90
2022-08-05T17:07:53.053Z,3.80
2022-08-05T17:17:47.883Z,3.50
2022-08-05T17:27:50.943Z,3.70
2022-08-05T17:37:50.540Z,3.50
2022-08-05T17:47:54.280Z,3.60
2022-08-05T17:57:50.235Z,3.90
2022-08-05T18:07:49.812Z,3.80
2022-08-05T18:17:58.174Z,3.40
2022-08-05T18:27:54.826Z,3.60
2022-08-05T18:37:54.159Z,3.60
2022-08-05T18:47:56.580Z,3.50
2022-08-05T18:58:02.966Z,3.70
2022-08-05T19:07:58.534Z,4.10
2022-08-05T19:17:59.291Z,4.00
2022-08-05T19:27:57.928Z,3.70
2022-08-05T19:38:04.815Z,3.60
2022-08-05T19:48:02.536Z,3.60
2022-08-05T19:58:14.269Z,3.30
2022-08-05T20:08:01.789Z,3.50
2022-08-05T20:18:01.576Z,3.70
2022-08-05T20:28:01.228Z,3.40
2022-08-05T20:38:08.203Z,3.90
2022-08-05T20:48:05.763Z,3.30
2022-08-05T20:58:05.377Z,3.40
2022-08-05T21:08:05.021Z,3.50
2022-08-05T21:18:04.795Z,3.20
2022-08-05T21:28:04.294Z,3.30
2022-08-05T21:38:09.671Z,3.50
2022-08-05T21:48:09.156Z,3.40
2022-08-05T21:58:10.371Z,3.30
2022-08-05T22:08:08.329Z,3.50
2022-08-05T22:18:08.579Z,4.20
2022-08-05T22:28:10.097Z,4.00
2022-08-05T22:38:12.716Z,3.50
2022-08-05T22:48:12.166Z,3.40
2022-08-05T22:58:14.511Z,3.50
2022-08-05T23:08:11.502Z,3.30
2022-08-05T23:18:11.556Z,3.30
2022-08-05T23:28:10.640Z,3.10
2022-08-05T23:38:12.047Z,3.20
2022-08-05T23:48:15.378Z,3.10
2022-08-05T23:58:31.530Z,3.20
